Time;durP1;ratioP1;P1;durP2;ratioP2;P2;SDS_P1;SDS_P2;PMS_P1;PMS_P2;Temp;Humidity;BMP_temperature;BMP_pressure;BME280_temperature;BME280_humidity;BME280_pressure;Samples;Min_cycle;Max_cycle;Signal;HPM_P1;HPM_P2
2023/08/11 00:02:15;;;;;;;10.15;4.40;;;;;;;;;;5050408;28;20036;-68
2023/08/11 00:04:41;;;;;;;5.60;4.30;;;;;;;;;;5050363;28;20470;-69
2023/08/11 00:07:06;;;;;;;6.10;4.10;;;;;;;;;;5050577;28;20031;-69
2023/08/11 00:09:32;;;;;;;9.32;4.15;;;;;;;;;;5050080;28;20098;-68
2023/08/11 00:11:58;;;;;;;4.60;3.72;;;;;;;;;;5050163;28;20104;-70
2023/08/11 00:14:23;;;;;;;6.38;4.13;;;;;;;;;;5049405;28;20441;-68
2023/08/11 00:16:49;;;;;;;6.07;4.30;;;;;;;;;;5050404;28;20040;-68
2023/08/11 00:19:16;;;;;;;5.38;4.03;;;;;;;;;;5032252;28;20142;-69
2023/08/11 00:21:41;;;;;;;7.70;4.75;;;;;;;;;;5050392;28;20017;-69
2023/08/11 00:24:07;;;;;;;9.13;4.88;;;;;;;;;;5049998;28;20045;-68
2023/08/11 00:26:33;;;;;;;10.40;5.30;;;;;;;;;;5049605;28;20539;-68
2023/08/11 00:28:59;;;;;;;8.10;5.43;;;;;;;;;;5049889;28;20063;-68
2023/08/11 00:31:24;;;;;;;8.32;5.03;;;;;;;;;;5031971;28;20036;-68
2023/08/11 00:33:51;;;;;;;8.32;6.00;;;;;;;;;;5049583;28;20116;-68
2023/08/11 00:36:18;;;;;;;9.43;5.97;;;;;;;;;;5049717;28;20071;-68
2023/08/11 00:38:44;;;;;;;12.38;6.10;;;;;;;;;;5049766;28;20504;-70
2023/08/11 00:41:10;;;;;;;7.78;5.85;;;;;;;;;;5031360;28;20029;-68
2023/08/11 00:43:36;;;;;;;6.90;5.03;;;;;;;;;;5031714;28;20396;-68
2023/08/11 00:46:10;;;;;;;7.00;4.88;;;;;;;;;;5049769;28;20103;-69
2023/08/11 00:48:44;;;;;;;7.70;5.18;;;;;;;;;;5049801;28;20457;-68
2023/08/11 00:51:14;;;;;;;8.43;5.63;;;;;;;;;;5031829;28;20039;-69
2023/08/11 00:53:41;;;;;;;9.90;5.97;;;;;;;;;;5049495;28;20032;-68
2023/08/11 00:56:07;;;;;;;11.90;5.95;;;;;;;;;;5031535;28;20029;-68
2023/08/11 00:58:34;;;;;;;11.68;5.38;;;;;;;;;;5049567;28;20028;-69
2023/08/11 01:01:00;;;;;;;7.85;5.28;;;;;;;;;;5049765;28;20113;-68
2023/08/11 01:03:26;;;;;;;7.28;4.68;;;;;;;;;;5031405;28;20443;-69
2023/08/11 01:06:25;;;;;;;6.53;4.50;;;;;;;;;;5064768;28;20047;-69
2023/08/11 01:09:11;;;;;;;12.50;5.18;;;;;;;;;;5031911;28;20035;-68
2023/08/11 01:12:07;;;;;;;8.63;5.38;;;;;;;;;;5032160;28;20061;-68
2023/08/11 01:14:52;;;;;;;6.93;4.68;;;;;;;;;;5031640;28;20478;-68
2023/08/11 01:17:20;;;;;;;9.45;5.43;;;;;;;;;;5049858;28;20116;-68
2023/08/11 01:19:47;;;;;;;6.13;4.80;;;;;;;;;;5015200;28;20024;-68
2023/08/11 01:22:16;;;;;;;7.05;3.92;;;;;;;;;;5064603;28;20036;-68
2023/08/11 01:24:45;;;;;;;8.95;4.63;;;;;;;;;;5031312;28;20543;-68
2023/08/11 01:27:12;;;;;;;8.13;5.32;;;;;;;;;;5064823;28;20067;-69
2023/08/11 01:29:39;;;;;;;6.88;4.60;;;;;;;;;;5049174;28;20021;-69
2023/08/11 01:32:05;;;;;;;9.05;4.93;;;;;;;;;;5031118;28;20048;-69
2023/08/11 01:34:31;;;;;;;4.72;4.13;;;;;;;;;;5046679;28;20440;-68
2023/08/11 01:37:01;;;;;;;9.88;5.40;;;;;;;;;;5011797;28;20031;-68
2023/08/11 01:39:31;;;;;;;8.80;5.25;;;;;;;;;;5031404;28;20037;-69
2023/08/11 01:41:58;;;;;;;8.32;4.95;;;;;;;;;;5012609;28;20037;-68
2023/08/11 01:44:25;;;;;;;7.20;3.65;;;;;;;;;;5014251;28;20033;-70
2023/08/11 01:46:54;;;;;;;5.10;3.58;;;;;;;;;;5031562;28;20040;-69
2023/08/11 01:49:22;;;;;;;7.78;4.55;;;;;;;;;;5049185;28;20029;-69
2023/08/11 01:51:47;;;;;;;6.20;4.10;;;;;;;;;;5049797;28;20037;-69
2023/08/11 01:54:13;;;;;;;11.50;4.50;;;;;;;;;;5034505;28;20021;-68
2023/08/11 01:56:39;;;;;;;10.77;4.20;;;;;;;;;;5065422;28;20033;-68
2023/08/11 01:59:11;;;;;;;6.88;4.32;;;;;;;;;;5033194;28;20117;-68
2023/08/11 02:01:38;;;;;;;7.67;4.20;;;;;;;;;;5032396;28;20083;-68
2023/08/11 02:04:04;;;;;;;5.10;3.65;;;;;;;;;;5034940;28;20021;-69
2023/08/11 02:06:30;;;;;;;10.13;4.95;;;;;;;;;;5068299;28;20380;-68
2023/08/11 02:08:57;;;;;;;8.35;4.65;;;;;;;;;;5051476;28;20033;-68
2023/08/11 02:11:23;;;;;;;11.73;5.32;;;;;;;;;;5034771;28;20148;-69
2023/08/11 02:13:48;;;;;;;7.95;4.38;;;;;;;;;;5035190;28;20032;-69
2023/08/11 02:16:14;;;;;;;10.35;5.35;;;;;;;;;;5052976;28;20040;-69
2023/08/11 02:18:40;;;;;;;10.60;5.18;;;;;;;;;;5052597;28;20028;-68
2023/08/11 02:21:07;;;;;;;8.98;5.30;;;;;;;;;;5035116;28;20032;-67
2023/08/11 02:23:33;;;;;;;6.60;4.95;;;;;;;;;;5052583;28;20025;-68
2023/08/11 02:26:00;;;;;;;8.57;5.78;;;;;;;;;;5044255;28;20041;-68
2023/08/11 02:28:25;;;;;;;9.50;6.82;;;;;;;;;;5018154;28;20482;-68
2023/08/11 02:30:51;;;;;;;9.57;7.00;;;;;;;;;;5026644;28;20040;-68
2023/08/11 02:33:18;;;;;;;8.88;5.55;;;;;;;;;;5032477;28;20022;-68
2023/08/11 02:35:46;;;;;;;8.20;5.35;;;;;;;;;;5047288;28;20119;-68
2023/08/11 02:38:13;;;;;;;10.35;6.55;;;;;;;;;;5015272;28;20025;-69
2023/08/11 02:40:40;;;;;;;9.35;6.75;;;;;;;;;;5012770;28;20487;-69
2023/08/11 02:43:07;;;;;;;14.18;7.53;;;;;;;;;;5016529;28;20029;-69
2023/08/11 02:45:33;;;;;;;9.98;7.72;;;;;;;;;;5031548;28;20033;-70
2023/08/11 02:47:58;;;;;;;12.63;8.35;;;;;;;;;;5020500;28;20398;-69
2023/08/11 02:50:24;;;;;;;13.45;8.80;;;;;;;;;;5031828;28;20030;-68
2023/08/11 02:52:50;;;;;;;9.95;8.15;;;;;;;;;;5020032;28;20024;-69
2023/08/11 02:55:16;;;;;;;11.10;8.40;;;;;;;;;;5013782;28;20036;-69
2023/08/11 02:57:41;;;;;;;12.10;8.73;;;;;;;;;;5014165;28;20040;-67
2023/08/11 03:00:12;;;;;;;11.45;7.25;;;;;;;;;;5013537;28;20120;-68
2023/08/11 03:02:38;;;;;;;11.20;8.10;;;;;;;;;;5013846;28;20120;-69
2023/08/11 03:05:07;;;;;;;11.02;8.02;;;;;;;;;;5030403;28;20093;-69
2023/08/11 03:07:34;;;;;;;9.55;8.38;;;;;;;;;;5047113;28;20447;-69
2023/08/11 03:10:01;;;;;;;11.00;8.60;;;;;;;;;;5017920;28;20055;-69
2023/08/11 03:12:28;;;;;;;10.63;8.55;;;;;;;;;;5013404;28;20402;-69
2023/08/11 03:14:54;;;;;;;15.15;9.55;;;;;;;;;;5016771;28;20066;-69
2023/08/11 03:17:21;;;;;;;13.63;9.38;;;;;;;;;;5013529;28;20507;-68
2023/08/11 03:19:46;;;;;;;13.60;9.88;;;;;;;;;;5017171;28;20514;-70
2023/08/11 03:22:13;;;;;;;13.07;9.68;;;;;;;;;;5013367;28;20124;-69
2023/08/11 03:24:39;;;;;;;14.40;9.68;;;;;;;;;;5015622;28;20418;-68
2023/08/11 03:27:06;;;;;;;13.50;10.23;;;;;;;;;;5013763;28;20025;-68
2023/08/11 03:29:33;;;;;;;13.45;9.73;;;;;;;;;;5014895;28;20028;-68
2023/08/11 03:31:59;;;;;;;12.57;9.10;;;;;;;;;;5014166;28;20088;-68
2023/08/11 03:34:27;;;;;;;13.40;9.93;;;;;;;;;;5012859;28;20029;-69
2023/08/11 03:36:54;;;;;;;15.60;9.52;;;;;;;;;;5048474;28;20114;-69
2023/08/11 03:39:19;;;;;;;14.40;9.88;;;;;;;;;;5046447;28;20479;-69
2023/08/11 03:41:46;;;;;;;11.80;9.77;;;;;;;;;;5015582;28;20021;-68
2023/08/11 03:44:12;;;;;;;11.43;8.82;;;;;;;;;;5013053;28;20168;-69
2023/08/11 03:46:38;;;;;;;14.63;9.80;;;;;;;;;;5015069;28;20111;-69
2023/08/11 03:49:05;;;;;;;11.65;9.30;;;;;;;;;;5030565;28;20430;-69
2023/08/11 03:51:30;;;;;;;11.85;9.52;;;;;;;;;;5033138;28;20490;-68
2023/08/11 03:53:58;;;;;;;13.93;9.40;;;;;;;;;;5031877;28;20025;-69
2023/08/11 03:56:25;;;;;;;12.98;9.40;;;;;;;;;;5013521;28;20309;-68
2023/08/11 03:58:50;;;;;;;20.27;9.40;;;;;;;;;;5013029;28;20029;-68
2023/08/11 04:01:17;;;;;;;17.45;8.32;;;;;;;;;;5014768;28;20036;-71
2023/08/11 04:03:45;;;;;;;18.17;8.88;;;;;;;;;;5013312;28;20088;-69
2023/08/11 04:06:11;;;;;;;12.63;9.40;;;;;;;;;;5011417;28;20034;-69
2023/08/11 04:08:37;;;;;;;9.90;8.15;;;;;;;;;;5012984;28;20338;-69
2023/08/11 04:11:03;;;;;;;12.52;8.32;;;;;;;;;;5012596;28;20056;-68
2023/08/11 04:13:28;;;;;;;12.57;7.97;;;;;;;;;;5029238;28;20061;-68
2023/08/11 04:15:54;;;;;;;12.27;7.43;;;;;;;;;;5046074;28;20539;-68
2023/08/11 04:18:20;;;;;;;9.63;7.28;;;;;;;;;;5014572;28;20479;-68
2023/08/11 04:20:48;;;;;;;13.10;7.53;;;;;;;;;;5032397;28;20037;-69
2023/08/11 04:23:14;;;;;;;14.40;7.03;;;;;;;;;;5032842;28;20021;-68
2023/08/11 04:25:40;;;;;;;9.57;7.28;;;;;;;;;;5047000;28;20513;-69
2023/08/11 04:28:06;;;;;;;11.82;7.15;;;;;;;;;;5011922;28;20386;-69
2023/08/11 04:30:32;;;;;;;9.15;7.18;;;;;;;;;;5013293;28;20025;-68
2023/08/11 04:32:59;;;;;;;11.55;7.70;;;;;;;;;;5013352;28;20509;-68
2023/08/11 04:35:27;;;;;;;12.38;8.13;;;;;;;;;;5012519;28;20124;-68
2023/08/11 04:37:54;;;;;;;10.10;8.02;;;;;;;;;;5012727;28;20041;-69
2023/08/11 04:40:23;;;;;;;11.52;8.85;;;;;;;;;;5045754;28;20068;-69
2023/08/11 04:42:50;;;;;;;11.00;7.78;;;;;;;;;;5013069;28;20037;-68
2023/08/11 04:45:20;;;;;;;11.10;7.90;;;;;;;;;;5013502;28;20121;-69
2023/08/11 04:47:46;;;;;;;13.95;8.57;;;;;;;;;;5032172;28;20109;-69
2023/08/11 04:50:16;;;;;;;11.10;9.30;;;;;;;;;;5047727;28;20367;-68
2023/08/11 04:52:42;;;;;;;14.55;8.48;;;;;;;;;;5014223;28;20167;-68
2023/08/11 04:55:08;;;;;;;15.32;8.35;;;;;;;;;;5047662;28;20120;-68
2023/08/11 04:57:35;;;;;;;17.30;8.30;;;;;;;;;;5030810;28;20033;-68
2023/08/11 05:00:06;;;;;;;12.25;7.97;;;;;;;;;;5014215;28;20036;-68
2023/08/11 05:02:32;;;;;;;13.73;8.02;;;;;;;;;;5031827;28;20094;-69
2023/08/11 05:04:58;;;;;;;12.40;7.65;;;;;;;;;;5031891;28;20028;-68
2023/08/11 05:07:24;;;;;;;12.27;7.50;;;;;;;;;;5031928;28;20029;-69
2023/08/11 05:09:50;;;;;;;10.20;7.50;;;;;;;;;;5030341;28;20025;-68
2023/08/11 05:12:16;;;;;;;15.82;7.70;;;;;;;;;;5014125;28;20401;-68
2023/08/11 05:14:42;;;;;;;13.55;7.10;;;;;;;;;;5031055;28;20088;-69
2023/08/11 05:17:08;;;;;;;11.85;7.93;;;;;;;;;;5031427;28;20037;-69
2023/08/11 05:19:36;;;;;;;10.27;6.82;;;;;;;;;;5031862;28;20105;-69
2023/08/11 05:22:02;;;;;;;12.27;6.05;;;;;;;;;;5031098;28;20038;-68
2023/08/11 05:24:28;;;;;;;8.48;6.53;;;;;;;;;;5031566;28;20053;-68
2023/08/11 05:26:54;;;;;;;9.23;7.43;;;;;;;;;;5031074;28;20251;-69
2023/08/11 05:29:19;;;;;;;11.85;7.38;;;;;;;;;;5012056;28;20079;-69
2023/08/11 05:31:45;;;;;;;9.73;7.07;;;;;;;;;;5028745;28;20038;-69
2023/08/11 05:34:11;;;;;;;16.38;7.32;;;;;;;;;;5024518;28;20438;-70
2023/08/11 05:36:36;;;;;;;10.32;7.15;;;;;;;;;;5026793;28;20095;-69
2023/08/11 05:39:03;;;;;;;13.27;7.63;;;;;;;;;;5020962;28;20398;-68
2023/08/11 05:41:29;;;;;;;8.63;6.32;;;;;;;;;;5016556;28;20026;-69
2023/08/11 05:43:54;;;;;;;8.93;6.05;;;;;;;;;;5003227;28;20427;-69
2023/08/11 05:46:21;;;;;;;8.23;6.30;;;;;;;;;;5031931;28;20033;-69
2023/08/11 05:48:48;;;;;;;12.32;6.95;;;;;;;;;;5032697;28;20049;-69
2023/08/11 05:51:15;;;;;;;6.97;6.25;;;;;;;;;;5022615;28;20557;-70
2023/08/11 05:53:41;;;;;;;16.10;6.50;;;;;;;;;;5029198;28;20121;-69
2023/08/11 05:56:07;;;;;;;12.05;7.00;;;;;;;;;;5027787;28;20383;-69
2023/08/11 05:58:33;;;;;;;11.63;6.05;;;;;;;;;;5028417;28;20021;-69
2023/08/11 06:01:00;;;;;;;6.65;4.60;;;;;;;;;;5022362;28;20065;-70
2023/08/11 06:03:30;;;;;;;5.85;4.20;;;;;;;;;;5044878;28;20034;-70
2023/08/11 06:06:04;;;;;;;8.00;5.10;;;;;;;;;;5024687;28;20077;-70
2023/08/11 06:08:30;;;;;;;7.78;5.03;;;;;;;;;;5020762;28;20053;-69
2023/08/11 06:10:56;;;;;;;6.85;5.05;;;;;;;;;;5028929;28;20483;-69
2023/08/11 06:13:23;;;;;;;9.07;5.63;;;;;;;;;;5029318;28;20042;-69
2023/08/11 06:15:49;;;;;;;8.77;5.55;;;;;;;;;;5024210;28;20030;-68
2023/08/11 06:18:16;;;;;;;12.27;4.85;;;;;;;;;;5028758;28;20037;-68
2023/08/11 06:20:41;;;;;;;5.53;3.38;;;;;;;;;;5026900;28;20022;-68
2023/08/11 06:23:08;;;;;;;7.85;4.20;;;;;;;;;;5031166;28;20391;-69
2023/08/11 06:25:34;;;;;;;5.43;3.65;;;;;;;;;;5026621;28;20037;-69
2023/08/11 06:27:59;;;;;;;7.32;3.65;;;;;;;;;;5029623;28;20041;-69
2023/08/11 06:30:28;;;;;;;5.47;3.30;;;;;;;;;;5025090;28;20025;-69
2023/08/11 06:32:54;;;;;;;9.55;3.90;;;;;;;;;;5029547;28;20313;-68
2023/08/11 06:35:19;;;;;;;5.13;3.30;;;;;;;;;;5029487;28;20108;-69
2023/08/11 06:37:45;;;;;;;5.63;3.00;;;;;;;;;;5027052;28;20060;-69
2023/08/11 06:40:13;;;;;;;4.30;2.53;;;;;;;;;;5036618;28;20071;-69
2023/08/11 06:42:39;;;;;;;9.25;3.17;;;;;;;;;;5016138;28;20025;-68
2023/08/11 06:45:08;;;;;;;5.50;2.55;;;;;;;;;;5010190;28;20367;-69
2023/08/11 06:47:36;;;;;;;2.70;2.20;;;;;;;;;;5029519;28;20202;-68
2023/08/11 06:50:03;;;;;;;3.92;2.22;;;;;;;;;;5030120;28;20178;-68
2023/08/11 06:52:29;;;;;;;4.75;2.83;;;;;;;;;;5024480;28;20041;-68
2023/08/11 06:54:54;;;;;;;4.03;2.40;;;;;;;;;;5027390;28;20018;-68
2023/08/11 06:57:20;;;;;;;5.38;2.92;;;;;;;;;;5028290;28;20026;-68
2023/08/11 06:59:47;;;;;;;3.72;2.33;;;;;;;;;;5023031;28;20025;-68
2023/08/11 07:02:13;;;;;;;3.35;1.95;;;;;;;;;;5027064;28;20528;-68
2023/08/11 07:04:42;;;;;;;3.58;1.90;;;;;;;;;;5017963;28;20025;-68
2023/08/11 07:07:09;;;;;;;3.40;2.20;;;;;;;;;;5029084;28;20483;-68
2023/08/11 07:09:34;;;;;;;4.88;2.10;;;;;;;;;;5014876;28;20116;-68
2023/08/11 07:12:00;;;;;;;4.00;2.20;;;;;;;;;;5028039;28;20120;-69
2023/08/11 07:14:26;;;;;;;4.75;2.00;;;;;;;;;;5007834;28;20029;-69
2023/08/11 07:16:52;;;;;;;5.32;2.20;;;;;;;;;;5028455;28;20034;-69
2023/08/11 07:19:18;;;;;;;5.65;2.08;;;;;;;;;;5025431;28;20081;-69
2023/08/11 07:21:44;;;;;;;8.63;2.33;;;;;;;;;;5021317;28;20028;-67
2023/08/11 07:24:10;;;;;;;5.07;2.28;;;;;;;;;;5027587;28;20064;-68
2023/08/11 07:26:36;;;;;;;4.07;2.28;;;;;;;;;;5033641;28;20042;-68
2023/08/11 07:29:02;;;;;;;2.60;1.95;;;;;;;;;;5030394;28;20120;-68
2023/08/11 07:31:28;;;;;;;4.32;2.25;;;;;;;;;;5029256;28;20188;-68
2023/08/11 07:33:54;;;;;;;2.22;1.70;;;;;;;;;;5024564;28;20526;-68
2023/08/11 07:36:20;;;;;;;2.88;2.00;;;;;;;;;;5028669;28;20042;-68
2023/08/11 07:38:46;;;;;;;4.00;2.42;;;;;;;;;;5036845;28;20040;-68
2023/08/11 07:41:12;;;;;;;4.03;1.80;;;;;;;;;;5025260;28;20136;-68
2023/08/11 07:43:39;;;;;;;3.85;1.80;;;;;;;;;;5027647;28;20521;-68
2023/08/11 07:46:05;;;;;;;2.50;1.77;;;;;;;;;;5025819;28;20475;-67
2023/08/11 07:48:31;;;;;;;3.08;1.73;;;;;;;;;;5032764;28;20060;-68
2023/08/11 07:50:56;;;;;;;2.70;1.70;;;;;;;;;;5027383;28;20125;-68
2023/08/11 07:53:22;;;;;;;2.90;1.70;;;;;;;;;;5030412;28;20026;-68
2023/08/11 07:55:48;;;;;;;3.67;1.83;;;;;;;;;;5030631;28;20029;-68
2023/08/11 07:58:13;;;;;;;2.55;1.75;;;;;;;;;;5029408;28;20489;-68
2023/08/11 08:00:39;;;;;;;4.05;2.17;;;;;;;;;;5012149;28;20130;-68
2023/08/11 08:03:05;;;;;;;3.95;1.95;;;;;;;;;;5029321;28;20026;-68
2023/08/11 08:05:31;;;;;;;3.58;1.80;;;;;;;;;;5028122;28;20032;-68
2023/08/11 08:07:58;;;;;;;2.28;1.80;;;;;;;;;;5023288;28;20021;-68
2023/08/11 08:10:25;;;;;;;3.15;1.70;;;;;;;;;;5035408;28;20041;-67
2023/08/11 08:12:51;;;;;;;4.07;2.05;;;;;;;;;;5024933;28;20049;-68
2023/08/11 08:15:17;;;;;;;3.00;1.80;;;;;;;;;;5028596;28;20120;-68
2023/08/11 08:17:43;;;;;;;3.90;1.75;;;;;;;;;;5026743;28;20017;-68
2023/08/11 08:20:13;;;;;;;2.45;1.60;;;;;;;;;;5025184;28;20029;-68
2023/08/11 08:22:40;;;;;;;5.55;2.00;;;;;;;;;;5053061;28;20068;-68
2023/08/11 08:25:06;;;;;;;5.15;1.85;;;;;;;;;;5019758;28;20030;-68
2023/08/11 08:27:37;;;;;;;2.10;1.60;;;;;;;;;;5033409;28;20033;-69
2023/08/11 08:30:05;;;;;;;6.53;1.90;;;;;;;;;;5027187;28;20048;-69
2023/08/11 08:32:31;;;;;;;2.88;1.88;;;;;;;;;;5025762;28;20022;-68
2023/08/11 08:34:57;;;;;;;2.17;1.65;;;;;;;;;;5029207;28;20363;-68
2023/08/11 08:37:24;;;;;;;2.30;1.55;;;;;;;;;;5025451;28;20076;-68
2023/08/11 08:39:53;;;;;;;2.88;1.75;;;;;;;;;;5028068;28;20033;-68
2023/08/11 08:42:19;;;;;;;1.95;1.55;;;;;;;;;;5029892;28;20100;-68
2023/08/11 08:44:47;;;;;;;2.67;1.77;;;;;;;;;;5030406;28;20399;-68
2023/08/11 08:47:14;;;;;;;3.25;1.95;;;;;;;;;;5031564;28;20108;-68
2023/08/11 08:49:41;;;;;;;2.65;2.08;;;;;;;;;;5031670;28;20060;-68
2023/08/11 08:52:07;;;;;;;2.40;1.70;;;;;;;;;;5031548;28;20024;-67
2023/08/11 08:54:33;;;;;;;10.25;1.80;;;;;;;;;;5031097;28;20033;-67
2023/08/11 08:57:01;;;;;;;3.10;1.70;;;;;;;;;;5031855;28;20065;-68
2023/08/11 08:59:27;;;;;;;4.05;2.00;;;;;;;;;;5031485;28;20037;-68
2023/08/11 09:01:53;;;;;;;2.90;2.00;;;;;;;;;;5031007;28;20029;-67
2023/08/11 09:04:20;;;;;;;2.60;1.90;;;;;;;;;;5031444;28;20040;-68
2023/08/11 09:06:46;;;;;;;2.60;1.75;;;;;;;;;;5030943;28;20062;-68
2023/08/11 09:09:12;;;;;;;4.65;1.90;;;;;;;;;;5031588;28;20562;-68
2023/08/11 09:11:39;;;;;;;2.60;1.83;;;;;;;;;;5031560;28;20053;-67
2023/08/11 09:14:10;;;;;;;1.92;1.52;;;;;;;;;;5031570;28;20061;-68
2023/08/11 09:16:39;;;;;;;2.28;1.70;;;;;;;;;;5031295;28;20033;-68
2023/08/11 09:19:09;;;;;;;3.10;1.60;;;;;;;;;;5030953;28;20030;-67
2023/08/11 09:21:35;;;;;;;2.30;1.52;;;;;;;;;;5031291;28;20143;-68
2023/08/11 09:24:01;;;;;;;2.53;1.90;;;;;;;;;;5031556;28;20109;-68
2023/08/11 09:26:27;;;;;;;3.75;2.10;;;;;;;;;;5030999;28;20045;-68
2023/08/11 09:28:54;;;;;;;5.63;2.00;;;;;;;;;;5031176;28;20033;-68
2023/08/11 09:31:24;;;;;;;2.70;1.70;;;;;;;;;;5030980;28;20041;-68
2023/08/11 09:33:52;;;;;;;4.85;1.70;;;;;;;;;;5013051;28;20112;-69
2023/08/11 09:36:18;;;;;;;2.30;1.55;;;;;;;;;;5030908;28;20111;-68
2023/08/11 09:38:45;;;;;;;2.95;1.70;;;;;;;;;;5031269;28;20536;-68
2023/08/11 09:41:16;;;;;;;2.72;2.10;;;;;;;;;;5031173;28;20033;-69
2023/08/11 09:43:49;;;;;;;4.55;1.88;;;;;;;;;;5030986;28;20041;-66
2023/08/11 09:46:15;;;;;;;3.42;2.08;;;;;;;;;;5030927;28;20116;-68
2023/08/11 09:48:40;;;;;;;4.60;1.98;;;;;;;;;;5030794;28;20171;-67
2023/08/11 09:51:10;;;;;;;3.53;1.85;;;;;;;;;;5031161;28;20422;-69
2023/08/11 09:53:40;;;;;;;2.95;2.17;;;;;;;;;;5031365;28;20056;-70
2023/08/11 09:56:07;;;;;;;6.20;1.92;;;;;;;;;;5031126;28;20510;-67
2023/08/11 09:58:37;;;;;;;2.78;2.20;;;;;;;;;;5030788;28;20108;-67
2023/08/11 10:01:07;;;;;;;3.10;2.10;;;;;;;;;;5030816;28;20532;-68
2023/08/11 10:03:40;;;;;;;6.97;1.60;;;;;;;;;;5030907;28;20720;-68
2023/08/11 10:06:06;;;;;;;;;;;;;;;;;;5031555;28;20503;-68
2023/08/11 10:08:32;;;;;;;2.28;1.70;;;;;;;;;;5031036;28;19948;-68
2023/08/11 10:10:59;;;;;;;3.50;1.75;;;;;;;;;;5030755;28;20033;-68
2023/08/11 10:13:29;;;;;;;2.42;2.00;;;;;;;;;;5030812;28;20036;-68
2023/08/11 10:15:55;;;;;;;2.17;1.48;;;;;;;;;;5034403;28;20545;-68
2023/08/11 10:18:22;;;;;;;2.85;1.60;;;;;;;;;;5035103;28;20033;-68
2023/08/11 10:20:51;;;;;;;1.98;1.30;;;;;;;;;;5034744;28;20040;-69
2023/08/11 10:23:20;;;;;;;4.53;1.77;;;;;;;;;;5034145;28;20120;-67
2023/08/11 10:25:47;;;;;;;3.53;1.60;;;;;;;;;;5034220;28;20040;-68
2023/08/11 10:28:14;;;;;;;1.90;1.45;;;;;;;;;;5016827;28;20037;-69
2023/08/11 10:30:40;;;;;;;2.10;1.50;;;;;;;;;;5034520;28;20025;-68
2023/08/11 10:33:08;;;;;;;4.18;2.08;;;;;;;;;;5034459;28;20037;-67
2023/08/11 10:35:46;;;;;;;2.88;1.70;;;;;;;;;;5030237;28;20033;-68
2023/08/11 10:38:11;;;;;;;2.20;1.50;;;;;;;;;;5032783;28;20610;-67
2023/08/11 10:40:38;;;;;;;2.28;1.58;;;;;;;;;;5048151;28;20108;-68
2023/08/11 10:43:04;;;;;;;2.15;1.60;;;;;;;;;;5034518;28;20041;-68
2023/08/11 10:45:35;;;;;;;2.35;1.70;;;;;;;;;;5033994;28;20017;-67
2023/08/11 10:48:09;;;;;;;2.95;1.83;;;;;;;;;;5034398;28;20033;-68
2023/08/11 10:50:37;;;;;;;2.65;1.48;;;;;;;;;;5033829;28;20403;-67
2023/08/11 10:53:10;;;;;;;4.63;1.50;;;;;;;;;;5033807;28;20030;-67
2023/08/11 10:55:36;;;;;;;3.67;1.98;;;;;;;;;;5016739;28;20041;-68
2023/08/11 10:58:10;;;;;;;2.58;1.58;;;;;;;;;;5034382;28;20025;-68
2023/08/11 11:00:35;;;;;;;2.15;1.50;;;;;;;;;;5031027;28;20034;-68
2023/08/11 11:03:02;;;;;;;3.10;1.80;;;;;;;;;;5031572;28;20097;-69
2023/08/11 11:05:28;;;;;;;2.13;1.45;;;;;;;;;;5031923;28;20406;-69
2023/08/11 11:07:54;;;;;;;2.42;1.52;;;;;;;;;;5031809;28;20021;-68
2023/08/11 11:10:20;;;;;;;2.75;1.70;;;;;;;;;;5032283;28;20037;-68
2023/08/11 11:12:45;;;;;;;3.50;1.80;;;;;;;;;;5031910;28;20033;-70
2023/08/11 11:15:11;;;;;;;4.05;1.70;;;;;;;;;;5032828;28;20042;-69
2023/08/11 11:17:37;;;;;;;2.03;1.60;;;;;;;;;;5034151;28;20037;-69
2023/08/11 11:20:03;;;;;;;2.20;1.50;;;;;;;;;;5034052;28;20041;-68
2023/08/11 11:22:29;;;;;;;3.65;2.80;;;;;;;;;;5033894;28;20013;-69
2023/08/11 11:25:00;;;;;;;3.13;1.85;;;;;;;;;;5034049;28;20547;-68
2023/08/11 11:27:26;;;;;;;1.95;1.65;;;;;;;;;;5033875;28;20073;-69
2023/08/11 11:29:59;;;;;;;1.90;1.60;;;;;;;;;;5033437;28;20117;-69
2023/08/11 11:32:26;;;;;;;2.33;1.60;;;;;;;;;;5033551;28;20149;-69
2023/08/11 11:34:52;;;;;;;2.50;1.60;;;;;;;;;;5033306;28;20025;-71
2023/08/11 11:37:18;;;;;;;5.38;1.70;;;;;;;;;;5034016;28;20449;-69
2023/08/11 11:39:43;;;;;;;3.20;1.90;;;;;;;;;;5033838;28;20021;-69
2023/08/11 11:42:09;;;;;;;2.40;1.80;;;;;;;;;;5033613;28;20394;-68
2023/08/11 11:44:35;;;;;;;1.75;1.35;;;;;;;;;;5033432;28;20044;-69
2023/08/11 11:47:02;;;;;;;2.33;1.50;;;;;;;;;;5034205;28;20390;-69
2023/08/11 11:49:31;;;;;;;2.65;1.60;;;;;;;;;;5033222;28;20025;-68
2023/08/11 11:52:00;;;;;;;3.05;1.60;;;;;;;;;;5033664;28;20029;-69
2023/08/11 11:54:33;;;;;;;2.97;1.77;;;;;;;;;;5033374;28;20033;-69
2023/08/11 11:57:02;;;;;;;2.88;1.80;;;;;;;;;;5033371;28;20112;-70
2023/08/11 11:59:28;;;;;;;2.25;1.70;;;;;;;;;;5033220;28;20048;-69
2023/08/11 12:02:00;;;;;;;2.50;1.80;;;;;;;;;;5032599;28;20086;-69
2023/08/11 12:04:26;;;;;;;2.88;1.65;;;;;;;;;;5032791;28;20037;-69
2023/08/11 12:06:52;;;;;;;2.60;1.83;;;;;;;;;;5032638;28;20041;-70
2023/08/11 12:09:19;;;;;;;6.72;1.75;;;;;;;;;;5032830;28;20045;-70
2023/08/11 12:11:45;;;;;;;4.10;1.83;;;;;;;;;;5032496;28;20037;-70
2023/08/11 12:14:16;;;;;;;3.55;1.70;;;;;;;;;;5032619;28;20055;-70
2023/08/11 12:16:42;;;;;;;4.13;2.00;;;;;;;;;;5032480;28;20044;-70
2023/08/11 12:19:08;;;;;;;5.07;1.80;;;;;;;;;;5048029;28;20406;-70
2023/08/11 12:21:34;;;;;;;2.47;2.03;;;;;;;;;;5032775;28;20029;-70
2023/08/11 12:23:59;;;;;;;2.28;1.50;;;;;;;;;;5032784;28;20025;-70
2023/08/11 12:26:26;;;;;;;2.40;1.90;;;;;;;;;;5032273;28;20507;-71
2023/08/11 12:28:51;;;;;;;2.95;1.92;;;;;;;;;;5032070;28;20026;-71
2023/08/11 12:31:18;;;;;;;2.47;1.90;;;;;;;;;;5031787;28;20037;-70
2023/08/11 12:33:44;;;;;;;2.97;1.70;;;;;;;;;;5032324;28;20027;-70
2023/08/11 12:36:09;;;;;;;2.70;2.10;;;;;;;;;;5031967;28;20033;-71
2023/08/11 12:38:35;;;;;;;2.42;1.80;;;;;;;;;;5032069;28;20025;-71
2023/08/11 12:41:01;;;;;;;2.80;1.77;;;;;;;;;;5032178;28;20064;-71
2023/08/11 12:43:26;;;;;;;2.97;1.92;;;;;;;;;;5031905;28;20021;-68
2023/08/11 12:45:52;;;;;;;2.55;2.03;;;;;;;;;;5031522;28;20395;-70
2023/08/11 12:48:19;;;;;;;2.90;1.80;;;;;;;;;;5032045;28;20021;-70
2023/08/11 12:50:44;;;;;;;2.20;1.50;;;;;;;;;;5032109;28;20048;-70
2023/08/11 12:53:10;;;;;;;3.20;1.80;;;;;;;;;;5031928;28;20394;-70
2023/08/11 12:55:39;;;;;;;4.47;1.75;;;;;;;;;;5032089;28;20056;-70
2023/08/11 12:58:05;;;;;;;2.38;1.75;;;;;;;;;;5031618;28;20048;-70
2023/08/11 13:00:32;;;;;;;2.55;1.70;;;;;;;;;;5031966;28;20368;-74
2023/08/11 13:02:58;;;;;;;3.65;2.30;;;;;;;;;;5031966;28;20110;-75
2023/08/11 13:05:26;;;;;;;4.35;1.80;;;;;;;;;;5030604;28;20065;-76
2023/08/11 13:07:51;;;;;;;3.30;1.63;;;;;;;;;;5030629;28;20487;-73
2023/08/11 13:10:19;;;;;;;2.75;1.50;;;;;;;;;;5030946;28;20118;-70
2023/08/11 13:12:45;;;;;;;7.22;2.03;;;;;;;;;;5047341;28;20049;-71
2023/08/11 13:15:11;;;;;;;2.30;1.70;;;;;;;;;;5031239;28;20037;-71
2023/08/11 13:17:37;;;;;;;5.25;2.00;;;;;;;;;;5032201;28;20105;-71
2023/08/11 13:20:06;;;;;;;2.42;1.85;;;;;;;;;;5031863;28;20198;-71
2023/08/11 13:22:36;;;;;;;3.28;1.60;;;;;;;;;;5031717;28;20402;-70
2023/08/11 13:25:01;;;;;;;3.28;1.70;;;;;;;;;;5031664;28;20475;-69
2023/08/11 13:27:27;;;;;;;2.53;1.80;;;;;;;;;;5031890;28;20033;-70
2023/08/11 13:29:53;;;;;;;3.00;1.90;;;;;;;;;;5031556;28;20033;-69
2023/08/11 13:32:19;;;;;;;2.67;1.80;;;;;;;;;;5031778;28;20021;-69
2023/08/11 13:34:44;;;;;;;2.75;1.60;;;;;;;;;;5013713;28;20034;-69
2023/08/11 13:37:10;;;;;;;4.25;1.70;;;;;;;;;;5031567;28;20025;-70
2023/08/11 13:39:36;;;;;;;3.00;1.85;;;;;;;;;;5029751;28;20320;-70
2023/08/11 13:42:01;;;;;;;3.55;1.52;;;;;;;;;;5031140;28;20043;-69
2023/08/11 13:44:27;;;;;;;3.05;1.83;;;;;;;;;;5030989;28;20343;-71
2023/08/11 13:46:53;;;;;;;2.83;1.58;;;;;;;;;;5031415;28;20479;-70
2023/08/11 13:49:18;;;;;;;2.20;1.60;;;;;;;;;;5032316;28;20112;-71
2023/08/11 13:51:45;;;;;;;2.22;1.52;;;;;;;;;;5033783;28;20024;-71
2023/08/11 13:54:10;;;;;;;2.58;1.52;;;;;;;;;;5017265;28;20537;-70
2023/08/11 13:56:37;;;;;;;1.60;1.40;;;;;;;;;;5033226;28;20017;-69
2023/08/11 13:59:04;;;;;;;2.72;1.60;;;;;;;;;;5032261;28;20160;-68
2023/08/11 14:01:30;;;;;;;2.63;1.50;;;;;;;;;;5033761;28;20027;-69
2023/08/11 14:03:56;;;;;;;3.28;1.55;;;;;;;;;;5048292;28;20087;-69
2023/08/11 14:06:23;;;;;;;2.47;1.77;;;;;;;;;;5049444;28;20027;-69
2023/08/11 14:08:49;;;;;;;3.22;1.65;;;;;;;;;;5034381;28;20510;-70
2023/08/11 14:11:15;;;;;;;4.15;1.98;;;;;;;;;;5034172;28;20026;-70
2023/08/11 14:13:41;;;;;;;2.20;1.30;;;;;;;;;;5034434;28;20434;-71
2023/08/11 14:16:07;;;;;;;2.40;1.75;;;;;;;;;;5033653;28;20013;-71
2023/08/11 14:18:33;;;;;;;2.03;1.52;;;;;;;;;;5034237;28;20037;-70
2023/08/11 14:20:58;;;;;;;1.90;1.50;;;;;;;;;;5034094;28;20033;-70
2023/08/11 14:23:24;;;;;;;1.95;1.60;;;;;;;;;;5033973;28;20163;-69
2023/08/11 14:25:50;;;;;;;2.63;1.70;;;;;;;;;;5033510;28;20479;-71
2023/08/11 14:28:16;;;;;;;2.47;1.77;;;;;;;;;;5034094;28;20122;-70
2023/08/11 14:30:42;;;;;;;3.00;1.60;;;;;;;;;;5033955;28;20028;-70
2023/08/11 14:33:07;;;;;;;3.95;1.65;;;;;;;;;;5033868;28;20057;-70
2023/08/11 14:35:33;;;;;;;2.42;1.67;;;;;;;;;;5016002;28;20082;-69
2023/08/11 14:37:59;;;;;;;2.05;1.45;;;;;;;;;;5033939;28;20415;-69
2023/08/11 14:40:25;;;;;;;3.85;1.70;;;;;;;;;;5034017;28;20025;-71